sensor_id;sensor_type;location;lat;lon;timestamp;pressure;altitude;pressure_sealevel;temperature;humidity
33280;BME280;20403;43.114;12.434;2023-05-19T00:01:35;99159.72;;;15.78;100.00
33280;BME280;20403;43.114;12.434;2023-05-19T00:04:02;99159.72;;;15.78;100.00
33280;BME280;20403;43.114;12.434;2023-05-19T00:06:30;99164.44;;;15.75;100.00
33280;BME280;20403;43.114;12.434;2023-05-19T00:09:04;99157.38;;;15.76;100.00
33280;BME280;20403;43.114;12.434;2023-05-19T00:11:32;99156.28;;;15.72;100.00
33280;BME280;20403;43.114;12.434;2023-05-19T00:13:58;99153.91;;;15.70;100.00
33280;BME280;20403;43.114;12.434;2023-05-19T00:16:26;99154.69;;;15.71;100.00
33280;BME280;20403;43.114;12.434;2023-05-19T00:18:52;99161.16;;;15.58;100.00
33280;BME280;20403;43.114;12.434;2023-05-19T00:21:18;99154.00;;;15.48;100.00
33280;BME280;20403;43.114;12.434;2023-05-19T00:23:44;99153.47;;;15.46;100.00
33280;BME280;20403;43.114;12.434;2023-05-19T00:26:10;99148.41;;;15.40;100.00
33280;BME280;20403;43.114;12.434;2023-05-19T00:28:35;99146.56;;;15.40;100.00
33280;BME280;20403;43.114;12.434;2023-05-19T00:31:01;99146.00;;;15.33;100.00
33280;BME280;20403;43.114;12.434;2023-05-19T00:33:27;99141.31;;;15.40;100.00
33280;BME280;20403;43.114;12.434;2023-05-19T00:35:53;99141.63;;;15.44;100.00
33280;BME280;20403;43.114;12.434;2023-05-19T00:38:18;99132.91;;;15.43;100.00
33280;BME280;20403;43.114;12.434;2023-05-19T00:40:44;99133.91;;;15.32;100.00
33280;BME280;20403;43.114;12.434;2023-05-19T00:43:09;99132.66;;;15.45;100.00
33280;BME280;20403;43.114;12.434;2023-05-19T00:45:35;99127.09;;;15.36;100.00
33280;BME280;20403;43.114;12.434;2023-05-19T00:48:00;99133.22;;;15.47;100.00
33280;BME280;20403;43.114;12.434;2023-05-19T00:50:26;99134.84;;;15.53;100.00
33280;BME280;20403;43.114;12.434;2023-05-19T00:52:53;99130.06;;;15.50;100.00
33280;BME280;20403;43.114;12.434;2023-05-19T00:55:21;99125.56;;;15.45;100.00
33280;BME280;20403;43.114;12.434;2023-05-19T00:57:48;99125.53;;;15.40;100.00
33280;BME280;20403;43.114;12.434;2023-05-19T01:00:14;99122.56;;;15.26;100.00
33280;BME280;20403;43.114;12.434;2023-05-19T01:02:41;99128.31;;;15.23;100.00
33280;BME280;20403;43.114;12.434;2023-05-19T01:05:07;99121.22;;;15.24;100.00
33280;BME280;20403;43.114;12.434;2023-05-19T01:07:33;99126.72;;;15.22;100.00
33280;BME280;20403;43.114;12.434;2023-05-19T01:09:59;99126.47;;;15.24;100.00
33280;BME280;20403;43.114;12.434;2023-05-19T01:12:25;99124.63;;;15.24;100.00
33280;BME280;20403;43.114;12.434;2023-05-19T01:14:51;99127.00;;;15.21;100.00
33280;BME280;20403;43.114;12.434;2023-05-19T01:17:26;99119.66;;;15.23;100.00
33280;BME280;20403;43.114;12.434;2023-05-19T01:20:01;99124.09;;;15.22;100.00
33280;BME280;20403;43.114;12.434;2023-05-19T01:25:57;99129.19;;;15.02;100.00
33280;BME280;20403;43.114;12.434;2023-05-19T01:31:12;99129.31;;;14.85;100.00
33280;BME280;20403;43.114;12.434;2023-05-19T01:33:40;99134.03;;;14.88;100.00
33280;BME280;20403;43.114;12.434;2023-05-19T01:36:08;99130.22;;;15.01;100.00
33280;BME280;20403;43.114;12.434;2023-05-19T01:38:37;99134.44;;;15.02;100.00
33280;BME280;20403;43.114;12.434;2023-05-19T01:41:05;99130.66;;;14.92;100.00
33280;BME280;20403;43.114;12.434;2023-05-19T01:43:31;99130.19;;;14.96;100.00
33280;BME280;20403;43.114;12.434;2023-05-19T01:45:57;99122.75;;;14.87;100.00
33280;BME280;20403;43.114;12.434;2023-05-19T01:48:23;99114.88;;;14.87;100.00
33280;BME280;20403;43.114;12.434;2023-05-19T01:50:49;99114.34;;;14.85;100.00
33280;BME280;20403;43.114;12.434;2023-05-19T01:53:15;99107.78;;;14.88;100.00
33280;BME280;20403;43.114;12.434;2023-05-19T01:55:45;99099.97;;;14.93;100.00
33280;BME280;20403;43.114;12.434;2023-05-19T02:00:57;99112.56;;;14.91;100.00
33280;BME280;20403;43.114;12.434;2023-05-19T02:09:17;99117.84;;;14.96;100.00
33280;BME280;20403;43.114;12.434;2023-05-19T02:11:54;99114.59;;;14.84;100.00
33280;BME280;20403;43.114;12.434;2023-05-19T02:14:30;99114.50;;;14.74;100.00
33280;BME280;20403;43.114;12.434;2023-05-19T02:16:57;99123.97;;;14.53;100.00
33280;BME280;20403;43.114;12.434;2023-05-19T02:19:28;99118.06;;;14.40;100.00
33280;BME280;20403;43.114;12.434;2023-05-19T02:21:55;99115.81;;;14.49;100.00
33280;BME280;20403;43.114;12.434;2023-05-19T02:24:20;99124.59;;;14.60;100.00
33280;BME280;20403;43.114;12.434;2023-05-19T02:26:50;99122.22;;;14.58;100.00
33280;BME280;20403;43.114;12.434;2023-05-19T02:29:16;99137.41;;;14.34;100.00
33280;BME280;20403;43.114;12.434;2023-05-19T02:31:42;99134.72;;;14.29;100.00
33280;BME280;20403;43.114;12.434;2023-05-19T02:34:07;99129.91;;;14.21;100.00
33280;BME280;20403;43.114;12.434;2023-05-19T02:36:34;99134.81;;;14.12;100.00
33280;BME280;20403;43.114;12.434;2023-05-19T02:39:03;99135.09;;;14.16;100.00
33280;BME280;20403;43.114;12.434;2023-05-19T02:41:29;99134.53;;;14.14;100.00
33280;BME280;20403;43.114;12.434;2023-05-19T02:43:55;99132.78;;;14.19;100.00
33280;BME280;20403;43.114;12.434;2023-05-19T02:46:21;99125.28;;;14.28;100.00
33280;BME280;20403;43.114;12.434;2023-05-19T02:48:46;99132.66;;;14.31;100.00
33280;BME280;20403;43.114;12.434;2023-05-19T02:51:11;99129.25;;;14.31;100.00
33280;BME280;20403;43.114;12.434;2023-05-19T02:53:37;99119.00;;;14.29;100.00
33280;BME280;20403;43.114;12.434;2023-05-19T02:56:02;99122.41;;;14.29;100.00
33280;BME280;20403;43.114;12.434;2023-05-19T02:58:28;99117.09;;;14.24;100.00
33280;BME280;20403;43.114;12.434;2023-05-19T03:00:54;99116.56;;;14.22;100.00
33280;BME280;20403;43.114;12.434;2023-05-19T03:03:20;99110.63;;;14.32;100.00
33280;BME280;20403;43.114;12.434;2023-05-19T03:05:45;99110.56;;;14.27;100.00
33280;BME280;20403;43.114;12.434;2023-05-19T03:08:11;99103.81;;;14.31;100.00
33280;BME280;20403;43.114;12.434;2023-05-19T03:10:37;99103.16;;;14.19;100.00
33280;BME280;20403;43.114;12.434;2023-05-19T03:13:02;99100.41;;;14.31;100.00
33280;BME280;20403;43.114;12.434;2023-05-19T03:15:28;99098.56;;;14.31;100.00
33280;BME280;20403;43.114;12.434;2023-05-19T03:17:53;99113.44;;;14.25;100.00
33280;BME280;20403;43.114;12.434;2023-05-19T03:20:19;99101.19;;;14.31;100.00
33280;BME280;20403;43.114;12.434;2023-05-19T03:22:44;99104.34;;;14.33;100.00
33280;BME280;20403;43.114;12.434;2023-05-19T03:25:09;99107.53;;;14.35;100.00
33280;BME280;20403;43.114;12.434;2023-05-19T03:27:35;99115.09;;;14.32;100.00
33280;BME280;20403;43.114;12.434;2023-05-19T03:30:00;99107.72;;;14.28;100.00
33280;BME280;20403;43.114;12.434;2023-05-19T03:32:26;99107.16;;;14.26;100.00
33280;BME280;20403;43.114;12.434;2023-05-19T03:34:51;99114.47;;;14.24;100.00
33280;BME280;20403;43.114;12.434;2023-05-19T03:37:17;99106.28;;;14.21;100.00
33280;BME280;20403;43.114;12.434;2023-05-19T03:39:42;99110.47;;;14.17;100.00
33280;BME280;20403;43.114;12.434;2023-05-19T03:42:07;99105.97;;;14.12;100.00
33280;BME280;20403;43.114;12.434;2023-05-19T03:44:33;99109.00;;;14.04;100.00
33280;BME280;20403;43.114;12.434;2023-05-19T03:46:58;99101.19;;;14.09;100.00
33280;BME280;20403;43.114;12.434;2023-05-19T03:49:24;99105.47;;;14.15;100.00
33280;BME280;20403;43.114;12.434;2023-05-19T03:51:49;99102.00;;;14.10;100.00
33280;BME280;20403;43.114;12.434;2023-05-19T03:54:15;99102.19;;;14.03;100.00
33280;BME280;20403;43.114;12.434;2023-05-19T03:56:41;99110.03;;;14.03;100.00
33280;BME280;20403;43.114;12.434;2023-05-19T03:59:07;99116.84;;;14.04;100.00
33280;BME280;20403;43.114;12.434;2023-05-19T04:01:35;99119.97;;;14.01;100.00
33280;BME280;20403;43.114;12.434;2023-05-19T04:04:01;99121.69;;;14.12;100.00
33280;BME280;20403;43.114;12.434;2023-05-19T04:06:26;99129.91;;;14.21;100.00
33280;BME280;20403;43.114;12.434;2023-05-19T04:08:51;99128.88;;;14.22;100.00
33280;BME280;20403;43.114;12.434;2023-05-19T04:11:17;99121.69;;;14.12;100.00
33280;BME280;20403;43.114;12.434;2023-05-19T04:13:44;99121.19;;;14.15;100.00
33280;BME280;20403;43.114;12.434;2023-05-19T04:16:09;99118.34;;;14.17;100.00
33280;BME280;20403;43.114;12.434;2023-05-19T04:18:35;99121.50;;;14.19;100.00
33280;BME280;20403;43.114;12.434;2023-05-19T04:21:00;99112.28;;;14.16;100.00
33280;BME280;20403;43.114;12.434;2023-05-19T04:23:25;99111.03;;;14.19;100.00
33280;BME280;20403;43.114;12.434;2023-05-19T04:25:51;99111.63;;;14.26;100.00
33280;BME280;20403;43.114;12.434;2023-05-19T04:28:18;99118.81;;;14.14;100.00
33280;BME280;20403;43.114;12.434;2023-05-19T04:30:43;99117.47;;;14.11;100.00
33280;BME280;20403;43.114;12.434;2023-05-19T04:33:11;99127.91;;;14.28;100.00
33280;BME280;20403;43.114;12.434;2023-05-19T04:35:37;99127.47;;;14.36;100.00
33280;BME280;20403;43.114;12.434;2023-05-19T04:38:04;99125.44;;;14.43;100.00
33280;BME280;20403;43.114;12.434;2023-05-19T04:40:30;99124.34;;;14.39;100.00
33280;BME280;20403;43.114;12.434;2023-05-19T04:42:56;99122.81;;;14.43;100.00
33280;BME280;20403;43.114;12.434;2023-05-19T04:45:22;99122.59;;;14.45;100.00
33280;BME280;20403;43.114;12.434;2023-05-19T04:47:49;99124.41;;;14.44;100.00
33280;BME280;20403;43.114;12.434;2023-05-19T04:50:16;99122.75;;;14.38;100.00
33280;BME280;20403;43.114;12.434;2023-05-19T04:52:42;99114.72;;;14.45;100.00
33280;BME280;20403;43.114;12.434;2023-05-19T04:55:09;99119.88;;;14.62;100.00
33280;BME280;20403;43.114;12.434;2023-05-19T04:57:35;99108.66;;;14.66;100.00
33280;BME280;20403;43.114;12.434;2023-05-19T05:00:02;99116.31;;;14.73;100.00
33280;BME280;20403;43.114;12.434;2023-05-19T05:02:32;99112.38;;;14.70;100.00
33280;BME280;20403;43.114;12.434;2023-05-19T05:04:58;99114.25;;;14.75;100.00
33280;BME280;20403;43.114;12.434;2023-05-19T05:07:23;99111.88;;;14.74;100.00
33280;BME280;20403;43.114;12.434;2023-05-19T05:09:49;99119.25;;;14.77;100.00
33280;BME280;20403;43.114;12.434;2023-05-19T05:12:15;99115.28;;;14.74;100.00
33280;BME280;20403;43.114;12.434;2023-05-19T05:14:41;99111.13;;;14.78;100.00
33280;BME280;20403;43.114;12.434;2023-05-19T05:17:07;99122.28;;;14.90;100.00
33280;BME280;20403;43.114;12.434;2023-05-19T05:19:34;99128.13;;;14.98;100.00
33280;BME280;20403;43.114;12.434;2023-05-19T05:21:59;99129.78;;;15.09;100.00
33280;BME280;20403;43.114;12.434;2023-05-19T05:24:25;99125.59;;;15.13;100.00
33280;BME280;20403;43.114;12.434;2023-05-19T05:26:51;99130.41;;;15.21;100.00
33280;BME280;20403;43.114;12.434;2023-05-19T05:29:16;99121.53;;;15.27;100.00
33280;BME280;20403;43.114;12.434;2023-05-19T05:31:42;99126.84;;;15.38;100.00
33280;BME280;20403;43.114;12.434;2023-05-19T05:34:08;99125.28;;;15.37;100.00
33280;BME280;20403;43.114;12.434;2023-05-19T05:36:33;99125.78;;;15.39;100.00
33280;BME280;20403;43.114;12.434;2023-05-19T05:39:00;99134.75;;;15.43;100.00
33280;BME280;20403;43.114;12.434;2023-05-19T05:41:27;99134.72;;;15.38;100.00
33280;BME280;20403;43.114;12.434;2023-05-19T05:43:53;99128.47;;;15.44;100.00
33280;BME280;20403;43.114;12.434;2023-05-19T05:46:19;99131.41;;;15.52;100.00
33280;BME280;20403;43.114;12.434;2023-05-19T05:48:45;99132.91;;;15.43;100.00
33280;BME280;20403;43.114;12.434;2023-05-19T05:51:11;99138.50;;;15.52;100.00
33280;BME280;20403;43.114;12.434;2023-05-19T05:53:40;99140.38;;;15.57;100.00
33280;BME280;20403;43.114;12.434;2023-05-19T05:56:08;99141.13;;;15.52;100.00
33280;BME280;20403;43.114;12.434;2023-05-19T05:58:34;99143.94;;;15.40;100.00
33280;BME280;20403;43.114;12.434;2023-05-19T06:01:02;99146.38;;;15.52;100.00
33280;BME280;20403;43.114;12.434;2023-05-19T06:03:28;99130.47;;;15.69;100.00
33280;BME280;20403;43.114;12.434;2023-05-19T06:05:56;99122.13;;;15.77;100.00
33280;BME280;20403;43.114;12.434;2023-05-19T06:08:21;99136.22;;;15.66;100.00
33280;BME280;20403;43.114;12.434;2023-05-19T06:10:47;99137.63;;;15.73;100.00
33280;BME280;20403;43.114;12.434;2023-05-19T06:13:12;99140.44;;;15.67;100.00
33280;BME280;20403;43.114;12.434;2023-05-19T06:15:40;99138.31;;;15.64;100.00
33280;BME280;20403;43.114;12.434;2023-05-19T06:18:05;99139.72;;;15.71;100.00
33280;BME280;20403;43.114;12.434;2023-05-19T06:20:31;99141.28;;;15.72;100.00
33280;BME280;20403;43.114;12.434;2023-05-19T06:22:56;99149.66;;;15.69;100.00
33280;BME280;20403;43.114;12.434;2023-05-19T06:25:22;99143.53;;;15.59;100.00
33280;BME280;20403;43.114;12.434;2023-05-19T06:27:48;99142.47;;;15.54;100.00
33280;BME280;20403;43.114;12.434;2023-05-19T06:30:14;99141.13;;;15.52;100.00
33280;BME280;20403;43.114;12.434;2023-05-19T06:32:40;99139.63;;;15.66;100.00
33280;BME280;20403;43.114;12.434;2023-05-19T06:35:05;99139.41;;;15.68;100.00
33280;BME280;20403;43.114;12.434;2023-05-19T06:37:31;99137.13;;;15.77;100.00
33280;BME280;20403;43.114;12.434;2023-05-19T06:39:56;99141.84;;;15.74;100.00
33280;BME280;20403;43.114;12.434;2023-05-19T06:42:22;99135.59;;;15.86;100.00
33280;BME280;20403;43.114;12.434;2023-05-19T06:44:49;99133.75;;;15.86;100.00
33280;BME280;20403;43.114;12.434;2023-05-19T06:47:15;99138.47;;;15.89;100.00
33280;BME280;20403;43.114;12.434;2023-05-19T06:49:41;99126.97;;;16.01;100.00
33280;BME280;20403;43.114;12.434;2023-05-19T06:52:07;99133.81;;;16.02;100.00
33280;BME280;20403;43.114;12.434;2023-05-19T06:54:33;99137.50;;;16.06;100.00
33280;BME280;20403;43.114;12.434;2023-05-19T06:56:58;99136.22;;;16.08;100.00
33280;BME280;20403;43.114;12.434;2023-05-19T06:59:23;99133.88;;;16.12;100.00
33280;BME280;20403;43.114;12.434;2023-05-19T07:01:49;99135.72;;;16.11;100.00
33280;BME280;20403;43.114;12.434;2023-05-19T07:04:14;99132.84;;;16.18;100.00
33280;BME280;20403;43.114;12.434;2023-05-19T07:06:40;99132.59;;;16.25;100.00
33280;BME280;20403;43.114;12.434;2023-05-19T07:09:05;99137.13;;;16.39;100.00
33280;BME280;20403;43.114;12.434;2023-05-19T07:11:31;99134.50;;;16.45;100.00
33280;BME280;20403;43.114;12.434;2023-05-19T07:13:56;99137.13;;;16.45;100.00
33280;BME280;20403;43.114;12.434;2023-05-19T07:16:21;99133.72;;;16.44;100.00
33280;BME280;20403;43.114;12.434;2023-05-19T07:18:47;99128.97;;;16.41;100.00
33280;BME280;20403;43.114;12.434;2023-05-19T07:21:12;99129.50;;;16.43;100.00
33280;BME280;20403;43.114;12.434;2023-05-19T07:23:38;99139.50;;;16.41;100.00
33280;BME280;20403;43.114;12.434;2023-05-19T07:26:03;99138.44;;;16.42;100.00
33280;BME280;20403;43.114;12.434;2023-05-19T07:28:29;99136.03;;;16.35;100.00
33280;BME280;20403;43.114;12.434;2023-05-19T07:30:54;99141.84;;;16.37;100.00
33280;BME280;20403;43.114;12.434;2023-05-19T07:33:20;99144.50;;;16.43;100.00
33280;BME280;20403;43.114;12.434;2023-05-19T07:35:46;99145.81;;;16.40;100.00
33280;BME280;20403;43.114;12.434;2023-05-19T07:38:11;99147.41;;;16.41;100.00
33280;BME280;20403;43.114;12.434;2023-05-19T07:40:37;99144.72;;;16.31;100.00
33280;BME280;20403;43.114;12.434;2023-05-19T07:43:02;99153.69;;;16.35;100.00
33280;BME280;20403;43.114;12.434;2023-05-19T07:45:27;99155.00;;;16.32;100.00
33280;BME280;20403;43.114;12.434;2023-05-19T07:47:53;99151.84;;;16.35;100.00
33280;BME280;20403;43.114;12.434;2023-05-19T07:50:18;99148.44;;;16.40;100.00
33280;BME280;20403;43.114;12.434;2023-05-19T07:52:44;99147.34;;;16.31;100.00
33280;BME280;20403;43.114;12.434;2023-05-19T07:55:10;99156.31;;;16.30;100.00
33280;BME280;20403;43.114;12.434;2023-05-19T07:57:36;99154.69;;;16.24;100.00
33280;BME280;20403;43.114;12.434;2023-05-19T08:00:02;99157.84;;;16.21;100.00
33280;BME280;20403;43.114;12.434;2023-05-19T08:02:32;99157.84;;;16.26;100.00
33280;BME280;20403;43.114;12.434;2023-05-19T08:04:57;99154.16;;;16.22;100.00
33280;BME280;20403;43.114;12.434;2023-05-19T08:07:23;99154.44;;;16.25;100.00
33280;BME280;20403;43.114;12.434;2023-05-19T08:09:48;99155.75;;;16.23;100.00
33280;BME280;20403;43.114;12.434;2023-05-19T08:12:14;99153.59;;;16.14;100.00
33280;BME280;20403;43.114;12.434;2023-05-19T08:14:39;99145.47;;;16.21;100.00
33280;BME280;20403;43.114;12.434;2023-05-19T08:17:05;99147.88;;;16.28;100.00
33280;BME280;20403;43.114;12.434;2023-05-19T08:19:30;99148.41;;;16.35;100.00
33280;BME280;20403;43.114;12.434;2023-05-19T08:21:56;99152.13;;;16.34;100.00
33280;BME280;20403;43.114;12.434;2023-05-19T08:24:22;99150.03;;;16.36;100.00
33280;BME280;20403;43.114;12.434;2023-05-19T08:26:47;99149.25;;;16.41;100.00
33280;BME280;20403;43.114;12.434;2023-05-19T08:29:13;99154.53;;;16.46;100.00
33280;BME280;20403;43.114;12.434;2023-05-19T08:31:38;99155.31;;;16.46;100.00
33280;BME280;20403;43.114;12.434;2023-05-19T08:34:04;99147.66;;;16.45;100.00
33280;BME280;20403;43.114;12.434;2023-05-19T08:36:29;99152.91;;;16.45;100.00
33280;BME280;20403;43.114;12.434;2023-05-19T08:38:55;99151.59;;;16.47;100.00
33280;BME280;20403;43.114;12.434;2023-05-19T08:41:20;99149.78;;;16.48;100.00
33280;BME280;20403;43.114;12.434;2023-05-19T08:43:47;99147.69;;;16.50;100.00
33280;BME280;20403;43.114;12.434;2023-05-19T08:46:15;99155.31;;;16.46;100.00
33280;BME280;20403;43.114;12.434;2023-05-19T08:48:42;99155.31;;;16.46;100.00
33280;BME280;20403;43.114;12.434;2023-05-19T08:53:39;99155.34;;;16.62;100.00
33280;BME280;20403;43.114;12.434;2023-05-19T08:56:21;99154.28;;;16.63;100.00
33280;BME280;20403;43.114;12.434;2023-05-19T08:58:49;99155.06;;;16.63;100.00
33280;BME280;20403;43.114;12.434;2023-05-19T09:01:15;99149.31;;;16.71;100.00
33280;BME280;20403;43.114;12.434;2023-05-19T09:03:42;99148.03;;;16.79;100.00
33280;BME280;20403;43.114;12.434;2023-05-19T09:06:09;99144.63;;;16.84;100.00
33280;BME280;20403;43.114;12.434;2023-05-19T09:08:36;99149.34;;;16.87;100.00
33280;BME280;20403;43.114;12.434;2023-05-19T09:11:02;99149.63;;;16.90;100.00
33280;BME280;20403;43.114;12.434;2023-05-19T09:13:28;99142.50;;;16.91;100.00
33280;BME280;20403;43.114;12.434;2023-05-19T09:15:55;99145.69;;;16.98;100.00
33280;BME280;20403;43.114;12.434;2023-05-19T09:18:23;99141.72;;;16.95;100.00
33280;BME280;20403;43.114;12.434;2023-05-19T09:20:48;99142.81;;;16.89;100.00
33280;BME280;20403;43.114;12.434;2023-05-19T09:23:15;99150.41;;;16.91;100.00
33280;BME280;20403;43.114;12.434;2023-05-19T09:25:48;99154.38;;;16.88;100.00
33280;BME280;20403;43.114;12.434;2023-05-19T09:28:14;99152.78;;;16.82;100.00
33280;BME280;20403;43.114;12.434;2023-05-19T09:30:46;99147.78;;;16.80;100.00
33280;BME280;20403;43.114;12.434;2023-05-19T09:33:16;99146.22;;;16.90;100.00
33280;BME280;20403;43.114;12.434;2023-05-19T09:35:46;99141.72;;;16.90;100.00
33280;BME280;20403;43.114;12.434;2023-05-19T09:38:17;99135.16;;;16.98;100.00
33280;BME280;20403;43.114;12.434;2023-05-19T09:40:43;99139.38;;;17.09;100.00
33280;BME280;20403;43.114;12.434;2023-05-19T09:43:08;99141.50;;;17.22;100.00
33280;BME280;20403;43.114;12.434;2023-05-19T09:45:34;99130.94;;;17.22;100.00
33280;BME280;20403;43.114;12.434;2023-05-19T09:48:02;99124.59;;;17.23;100.00
33280;BME280;20403;43.114;12.434;2023-05-19T09:50:28;99132.00;;;17.27;100.00
33280;BME280;20403;43.114;12.434;2023-05-19T09:52:55;99128.56;;;17.31;100.00
33280;BME280;20403;43.114;12.434;2023-05-19T09:55:24;99123.28;;;17.41;100.00
33280;BME280;20403;43.114;12.434;2023-05-19T09:57:50;99126.97;;;17.46;100.00
33280;BME280;20403;43.114;12.434;2023-05-19T10:00:17;99119.56;;;17.53;100.00
33280;BME280;20403;43.114;12.434;2023-05-19T10:02:46;99122.75;;;17.50;100.00
33280;BME280;20403;43.114;12.434;2023-05-19T10:05:16;99124.38;;;17.35;100.00
33280;BME280;20403;43.114;12.434;2023-05-19T10:07:49;99124.88;;;17.42;100.00
33280;BME280;20403;43.114;12.434;2023-05-19T10:10:16;99124.88;;;17.42;100.00
33280;BME280;20403;43.114;12.434;2023-05-19T10:12:42;99113.53;;;17.47;100.00
33280;BME280;20403;43.114;12.434;2023-05-19T10:15:08;99120.88;;;17.60;100.00
33280;BME280;20403;43.114;12.434;2023-05-19T10:17:37;99124.31;;;17.66;100.00
33280;BME280;20403;43.114;12.434;2023-05-19T10:20:03;99131.41;;;17.71;100.00
33280;BME280;20403;43.114;12.434;2023-05-19T10:22:31;99135.88;;;17.80;100.00
33280;BME280;20403;43.114;12.434;2023-05-19T10:24:56;99142.19;;;17.95;100.00
33280;BME280;20403;43.114;12.434;2023-05-19T10:27:22;99143.97;;;18.15;100.00
33280;BME280;20403;43.114;12.434;2023-05-19T10:29:50;99134.88;;;18.36;100.00
33280;BME280;20403;43.114;12.434;2023-05-19T10:32:22;99136.94;;;18.50;100.00
33280;BME280;20403;43.114;12.434;2023-05-19T10:35:19;99131.28;;;18.66;100.00
33280;BME280;20403;43.114;12.434;2023-05-19T10:38:02;99138.38;;;18.81;100.00
33280;BME280;20403;43.114;12.434;2023-05-19T10:40:36;99128.72;;;19.01;100.00
33280;BME280;20403;43.114;12.434;2023-05-19T10:45:56;99134.75;;;19.06;100.00
33280;BME280;20403;43.114;12.434;2023-05-19T10:48:21;99137.19;;;18.98;100.00
33280;BME280;20403;43.114;12.434;2023-05-19T10:50:53;99130.78;;;19.04;100.00
33280;BME280;20403;43.114;12.434;2023-05-19T10:53:19;99129.81;;;18.95;100.00
33280;BME280;20403;43.114;12.434;2023-05-19T10:55:52;99133.28;;;18.90;100.00
33280;BME280;20403;43.114;12.434;2023-05-19T11:01:06;99133.41;;;19.09;100.00
33280;BME280;20403;43.114;12.434;2023-05-19T11:03:43;99133.78;;;18.97;100.00
33280;BME280;20403;43.114;12.434;2023-05-19T11:08:43;99127.75;;;18.86;100.00
33280;BME280;20403;43.114;12.434;2023-05-19T11:11:15;99132.84;;;18.73;100.00
33280;BME280;20403;43.114;12.434;2023-05-19T11:13:54;99124.69;;;18.64;100.00
33280;BME280;20403;43.114;12.434;2023-05-19T11:16:32;99122.66;;;18.51;100.00
33280;BME280;20403;43.114;12.434;2023-05-19T11:18:58;99121.97;;;18.35;100.00
33280;BME280;20403;43.114;12.434;2023-05-19T11:21:40;99121.75;;;18.26;100.00
33280;BME280;20403;43.114;12.434;2023-05-19T11:24:09;99126.53;;;18.19;100.00
33280;BME280;20403;43.114;12.434;2023-05-19T11:26:41;99121.56;;;18.12;100.00
33280;BME280;20403;43.114;12.434;2023-05-19T11:29:09;99125.78;;;18.08;100.00
33280;BME280;20403;43.114;12.434;2023-05-19T11:31:36;99129.72;;;18.11;100.00
33280;BME280;20403;43.114;12.434;2023-05-19T11:34:03;99136.06;;;18.15;100.00
33280;BME280;20403;43.114;12.434;2023-05-19T11:36:32;99134.16;;;18.20;100.00
33280;BME280;20403;43.114;12.434;2023-05-19T11:38:58;99134.72;;;18.17;100.00
33280;BME280;20403;43.114;12.434;2023-05-19T11:41:24;99129.69;;;18.21;100.00
33280;BME280;20403;43.114;12.434;2023-05-19T11:43:52;99133.38;;;18.20;100.00
33280;BME280;20403;43.114;12.434;2023-05-19T11:46:17;99136.53;;;18.27;100.00
33280;BME280;20403;43.114;12.434;2023-05-19T11:48:46;99133.66;;;18.23;100.00
33280;BME280;20403;43.114;12.434;2023-05-19T11:51:12;99128.38;;;18.23;100.00
33280;BME280;20403;43.114;12.434;2023-05-19T11:53:37;99138.38;;;18.26;100.00
33280;BME280;20403;43.114;12.434;2023-05-19T11:56:04;99133.84;;;18.32;100.00
33280;BME280;20403;43.114;12.434;2023-05-19T11:58:30;99131.13;;;18.47;100.00
33280;BME280;20403;43.114;12.434;2023-05-19T12:00:55;99126.63;;;18.53;100.00
33280;BME280;20403;43.114;12.434;2023-05-19T12:03:21;99119.19;;;18.60;100.00
33280;BME280;20403;43.114;12.434;2023-05-19T12:05:50;99118.94;;;18.57;100.00
33280;BME280;20403;43.114;12.434;2023-05-19T12:08:16;99117.34;;;18.61;100.00
33280;BME280;20403;43.114;12.434;2023-05-19T12:10:42;99121.28;;;18.63;100.00
33280;BME280;20403;43.114;12.434;2023-05-19T12:13:08;99120.16;;;18.75;100.00
33280;BME280;20403;43.114;12.434;2023-05-19T12:15:34;99116.22;;;18.72;100.00
33280;BME280;20403;43.114;12.434;2023-05-19T12:18:01;99115.91;;;18.74;100.00
33280;BME280;20403;43.114;12.434;2023-05-19T12:20:28;99117.78;;;18.73;100.00
33280;BME280;20403;43.114;12.434;2023-05-19T12:22:57;99119.16;;;18.65;100.00
33280;BME280;20403;43.114;12.434;2023-05-19T12:25:23;99115.47;;;18.61;100.00
33280;BME280;20403;43.114;12.434;2023-05-19T12:27:48;99120.25;;;18.59;100.00
33280;BME280;20403;43.114;12.434;2023-05-19T12:30:17;99122.13;;;18.54;100.00
33280;BME280;20403;43.114;12.434;2023-05-19T12:32:44;99108.97;;;18.43;100.00
33280;BME280;20403;43.114;12.434;2023-05-19T12:35:10;99101.69;;;18.30;100.00
33280;BME280;20403;43.114;12.434;2023-05-19T12:37:40;99107.19;;;18.34;100.00
33280;BME280;20403;43.114;12.434;2023-05-19T12:40:06;99102.16;;;18.37;100.00
33280;BME280;20403;43.114;12.434;2023-05-19T12:42:31;99102.34;;;18.46;100.00
33280;BME280;20403;43.114;12.434;2023-05-19T12:45:00;99102.88;;;18.48;100.00
33280;BME280;20403;43.114;12.434;2023-05-19T12:47:31;99105.25;;;18.50;100.00
33280;BME280;20403;43.114;12.434;2023-05-19T12:50:06;99097.59;;;18.48;100.00
33280;BME280;20403;43.114;12.434;2023-05-19T12:52:52;99106.63;;;18.42;100.00
33280;BME280;20403;43.114;12.434;2023-05-19T12:55:18;99100.75;;;18.50;100.00
33280;BME280;20403;43.114;12.434;2023-05-19T12:57:48;99090.97;;;18.56;100.00
33280;BME280;20403;43.114;12.434;2023-05-19T13:00:22;99078.47;;;18.66;100.00
33280;BME280;20403;43.114;12.434;2023-05-19T13:02:57;99072.59;;;18.75;100.00
33280;BME280;20403;43.114;12.434;2023-05-19T13:05:23;99063.59;;;18.76;100.00